createdAt,value
2022-11-14T00:00:29.393Z,151039.50
2022-11-14T00:02:58.650Z,151057.22
2022-11-14T00:05:24.405Z,151081.28
2022-11-14T00:07:50.217Z,151049.66
2022-11-14T00:10:16.675Z,151026.84
2022-11-14T00:12:42.456Z,151006.63
2022-11-14T00:15:09.528Z,150988.94
2022-11-14T00:17:35.565Z,150949.75
2022-11-14T00:20:01.768Z,150964.94
2022-11-14T00:22:27.537Z,151021.81
2022-11-14T00:24:53.321Z,151012.97
2022-11-14T00:27:19.053Z,151014.25
2022-11-14T00:29:44.825Z,150994.03
2022-11-14T00:32:10.625Z,150990.19
2022-11-14T00:34:36.396Z,150971.22
2022-11-14T00:37:02.217Z,151010.47
2022-11-14T00:39:28.062Z,150988.94
2022-11-14T00:41:53.884Z,150996.53
2022-11-14T00:44:19.629Z,151033.22
2022-11-14T00:46:45.361Z,151035.72
2022-11-14T00:49:11.163Z,151040.78
2022-11-14T00:51:36.965Z,151033.22
2022-11-14T00:54:02.904Z,151035.72
2022-11-14T00:56:28.655Z,151035.72
2022-11-14T00:58:54.587Z,151034.47
2022-11-14T01:01:20.388Z,151015.50
2022-11-14T01:03:50.398Z,151010.47
2022-11-14T01:06:17.685Z,150962.41
2022-11-14T01:08:44.046Z,150943.44
2022-11-14T01:11:16.394Z,150929.53
2022-11-14T01:13:42.605Z,150920.69
2022-11-14T01:16:09.074Z,150876.41
2022-11-14T01:18:36.050Z,150880.19
2022-11-14T01:21:06.075Z,150858.69
2022-11-14T01:23:32.149Z,150839.75
2022-11-14T01:26:06.143Z,150868.84
2022-11-14T01:28:32.306Z,150873.88
2022-11-14T01:31:20.577Z,150813.22
2022-11-14T01:33:50.597Z,150817.00
2022-11-14T01:36:16.948Z,150873.88
2022-11-14T01:38:42.740Z,150852.41
2022-11-14T01:41:12.620Z,150833.44
2022-11-14T01:43:39.691Z,150871.34
2022-11-14T01:46:21.470Z,150877.66
2022-11-14T01:48:52.584Z,150875.13
2022-11-14T01:51:31.985Z,150873.88
2022-11-14T01:54:05.317Z,150834.72
2022-11-14T01:56:35.333Z,150829.66
2022-11-14T01:59:08.821Z,150786.69
2022-11-14T02:01:40.878Z,150794.28
2022-11-14T02:04:08.880Z,150774.03
2022-11-14T02:06:38.444Z,150770.25
2022-11-14T02:09:06.470Z,150752.56
2022-11-14T02:11:37.171Z,150748.78
2022-11-14T02:14:03.516Z,150795.53
2022-11-14T02:16:29.315Z,150755.06
2022-11-14T02:18:55.089Z,150755.06
2022-11-14T02:21:21.089Z,150761.44
2022-11-14T02:23:46.848Z,150757.66
2022-11-14T02:26:14.819Z,150731.09
2022-11-14T02:28:40.563Z,150755.06
2022-11-14T02:31:06.286Z,150768.97
2022-11-14T02:33:32.043Z,150732.34
2022-11-14T02:35:58.190Z,150755.06
2022-11-14T02:38:23.948Z,150734.88
2022-11-14T02:40:49.675Z,150707.09
2022-11-14T02:43:15.459Z,150664.13
2022-11-14T02:45:41.329Z,150704.59
2022-11-14T02:48:07.152Z,150702.03
2022-11-14T02:50:32.953Z,150669.22
2022-11-14T02:52:58.853Z,150659.09
2022-11-14T02:55:24.593Z,150655.31
2022-11-14T02:57:50.414Z,150633.84
2022-11-14T03:00:16.843Z,150642.66
2022-11-14T03:02:42.778Z,150650.28
2022-11-14T03:05:08.587Z,150673.00
2022-11-14T03:07:34.404Z,150683.06
2022-11-14T03:10:00.324Z,150661.59
2022-11-14T03:12:26.067Z,150664.13
2022-11-14T03:14:51.782Z,150637.63
2022-11-14T03:17:17.525Z,150652.78
2022-11-14T03:19:43.280Z,150640.16
2022-11-14T03:22:09.045Z,150589.63
2022-11-14T03:24:37.803Z,150585.84
2022-11-14T03:27:03.612Z,150566.91
2022-11-14T03:29:29.393Z,150560.63
2022-11-14T03:31:55.170Z,150583.34
2022-11-14T03:34:20.933Z,150563.13
2022-11-14T03:36:46.676Z,150530.31
2022-11-14T03:39:12.445Z,150487.34
2022-11-14T03:41:38.182Z,150493.69
2022-11-14T03:44:03.954Z,150497.47
2022-11-14T03:46:29.740Z,150488.66
2022-11-14T03:48:55.524Z,150507.59
2022-11-14T03:51:21.320Z,150492.44
2022-11-14T03:53:47.053Z,150479.78
2022-11-14T03:56:12.855Z,150425.53
2022-11-14T03:58:38.649Z,150452.00
2022-11-14T04:01:04.425Z,150487.34
2022-11-14T04:03:30.170Z,150483.56
2022-11-14T04:05:55.913Z,150473.50
2022-11-14T04:08:21.687Z,150479.78
2022-11-14T04:10:48.136Z,150454.56
2022-11-14T04:13:14.059Z,150444.47
2022-11-14T04:15:39.965Z,150433.06
2022-11-14T04:18:05.743Z,150428.03
2022-11-14T04:20:31.585Z,150449.50
2022-11-14T04:22:57.314Z,150469.69
2022-11-14T04:25:23.113Z,150473.50
2022-11-14T04:27:48.903Z,150507.59
2022-11-14T04:30:14.888Z,150476.03
2022-11-14T04:32:40.627Z,150449.50
2022-11-14T04:35:06.673Z,150455.84
2022-11-14T04:37:32.474Z,150436.91
2022-11-14T04:40:00.146Z,150440.69
2022-11-14T04:42:26.713Z,150452.00
2022-11-14T04:44:52.494Z,150467.16
2022-11-14T04:47:18.292Z,150465.91
2022-11-14T04:49:44.069Z,150463.38
2022-11-14T04:52:09.800Z,150463.38
2022-11-14T04:54:35.571Z,150492.44
2022-11-14T04:57:01.307Z,150510.09
2022-11-14T04:59:27.073Z,150494.94
2022-11-14T05:01:52.931Z,150493.69
2022-11-14T05:04:18.978Z,150492.44
2022-11-14T05:06:44.806Z,150470.97
2022-11-14T05:09:11.138Z,150483.56
2022-11-14T05:11:36.863Z,150484.84
2022-11-14T05:14:02.897Z,150464.63
2022-11-14T05:16:28.654Z,150438.16
2022-11-14T05:18:54.478Z,150455.84
2022-11-14T05:21:20.353Z,150454.56
2022-11-14T05:23:46.126Z,150446.97
2022-11-14T05:26:15.027Z,150454.56
2022-11-14T05:28:40.890Z,150491.19
2022-11-14T05:31:09.873Z,150449.50
2022-11-14T05:33:36.014Z,150425.53
2022-11-14T05:36:06.759Z,150429.31
2022-11-14T05:38:33.385Z,150381.38
2022-11-14T05:40:59.642Z,150393.97
2022-11-14T05:43:28.948Z,150421.75
2022-11-14T05:45:59.745Z,150380.06
2022-11-14T05:48:25.557Z,150397.72
2022-11-14T05:50:55.933Z,150429.31
2022-11-14T05:53:21.854Z,150434.38
2022-11-14T05:55:47.618Z,150443.19
2022-11-14T05:58:13.360Z,150429.31
2022-11-14T06:00:46.554Z,150465.91
2022-11-14T06:03:16.614Z,150491.19
2022-11-14T06:05:43.299Z,150479.78
2022-11-14T06:08:09.304Z,150450.75
2022-11-14T06:10:35.351Z,150463.38
2022-11-14T06:13:01.404Z,150463.38
2022-11-14T06:15:27.524Z,150472.25
2022-11-14T06:17:53.653Z,150436.91
2022-11-14T06:20:20.175Z,150401.56
2022-11-14T06:22:46.062Z,150386.41
2022-11-14T06:25:11.897Z,150357.38
2022-11-14T06:27:37.676Z,150346.03
2022-11-14T06:30:03.883Z,150342.22
2022-11-14T06:32:29.675Z,150367.50
2022-11-14T06:34:55.428Z,150376.28
2022-11-14T06:37:21.239Z,150343.47
2022-11-14T06:39:47.015Z,150366.22
2022-11-14T06:42:15.344Z,150340.97
2022-11-14T06:44:41.117Z,150330.91
2022-11-14T06:47:06.861Z,150337.19
2022-11-14T06:49:35.337Z,150338.44
2022-11-14T06:52:05.150Z,150352.34
2022-11-14T06:54:30.923Z,150330.91
2022-11-14T06:56:56.780Z,150323.28
2022-11-14T06:59:22.539Z,150337.19
2022-11-14T07:01:48.278Z,150359.88
2022-11-14T07:04:14.094Z,150349.81
2022-11-14T07:06:39.908Z,150346.03
2022-11-14T07:09:05.636Z,150368.75
2022-11-14T07:11:32.457Z,150376.28
2022-11-14T07:13:59.800Z,150390.19
2022-11-14T07:16:31.435Z,150412.88
2022-11-14T07:19:01.524Z,150386.41
2022-11-14T07:21:28.937Z,150390.19
2022-11-14T07:23:56.000Z,150354.84
2022-11-14T07:26:22.044Z,150354.84
2022-11-14T07:28:52.433Z,150364.97
2022-11-14T07:31:20.833Z,150370.00
2022-11-14T07:33:47.410Z,150318.25
2022-11-14T07:36:14.788Z,150319.53
2022-11-14T07:38:40.514Z,150352.34
2022-11-14T07:41:12.037Z,150358.63
2022-11-14T07:43:38.194Z,150354.84
2022-11-14T07:46:15.815Z,150364.97
2022-11-14T07:48:41.969Z,150352.34
2022-11-14T07:51:14.643Z,150318.25
2022-11-14T07:53:40.626Z,150343.47
2022-11-14T07:56:10.984Z,150291.78
2022-11-14T07:58:38.707Z,150308.16
2022-11-14T08:01:06.720Z,150337.19
2022-11-14T08:03:33.066Z,150391.44
2022-11-14T08:06:06.360Z,150393.97
2022-11-14T08:08:32.861Z,150338.44
2022-11-14T08:10:59.437Z,150351.06
2022-11-14T08:13:32.153Z,150380.06
2022-11-14T08:16:01.826Z,150378.81
2022-11-14T08:18:27.845Z,150376.28
2022-11-14T08:20:56.786Z,150388.94
2022-11-14T08:23:22.882Z,150361.16
2022-11-14T08:25:48.759Z,150400.31
2022-11-14T08:28:14.540Z,150385.16
2022-11-14T08:30:40.313Z,150335.94
2022-11-14T08:33:06.899Z,150335.94
2022-11-14T08:35:33.118Z,150308.16
2022-11-14T08:38:00.942Z,150246.31
2022-11-14T08:40:26.722Z,150197.09
2022-11-14T08:43:01.935Z,150213.50
2022-11-14T08:45:28.791Z,150176.94
2022-11-14T08:47:54.886Z,150168.13
2022-11-14T08:50:20.856Z,150132.81
2022-11-14T08:52:51.364Z,150131.56
2022-11-14T08:55:18.302Z,150127.75
2022-11-14T08:57:48.151Z,150082.38
2022-11-14T09:00:15.765Z,150108.84
2022-11-14T09:02:41.590Z,150103.81
2022-11-14T09:05:07.968Z,150093.75
2022-11-14T09:07:33.846Z,150086.16
2022-11-14T09:09:59.615Z,150074.78
2022-11-14T09:12:25.333Z,150073.53
2022-11-14T09:14:51.101Z,150052.09
2022-11-14T09:17:16.852Z,150044.56
2022-11-14T09:19:42.636Z,150042.06
2022-11-14T09:22:08.398Z,150043.31
2022-11-14T09:24:34.168Z,149971.47
2022-11-14T09:26:59.906Z,149975.22
2022-11-14T09:29:25.752Z,149995.41
2022-11-14T09:31:52.380Z,149984.03
2022-11-14T09:34:18.267Z,150009.28
2022-11-14T09:36:44.093Z,150001.69
2022-11-14T09:39:09.820Z,150052.09
2022-11-14T09:41:50.447Z,150036.97
2022-11-14T09:44:20.754Z,150036.97
2022-11-14T09:47:09.121Z,150004.25
2022-11-14T09:49:38.685Z,150064.72
2022-11-14T09:52:30.431Z,150091.19
2022-11-14T09:54:58.872Z,150141.63
2022-11-14T09:57:25.941Z,150136.59
2022-11-14T09:59:51.928Z,150187.03
2022-11-14T10:02:35.973Z,150217.28
2022-11-14T10:05:22.098Z,150245.06
2022-11-14T10:08:12.614Z,150233.69
2022-11-14T10:10:47.908Z,150227.41
2022-11-14T10:13:49.999Z,150238.75
2022-11-14T10:16:38.761Z,150261.44
2022-11-14T10:19:19.880Z,150243.78
2022-11-14T10:21:54.963Z,150236.19
2022-11-14T10:24:50.829Z,150250.09
2022-11-14T10:27:27.196Z,150281.63
2022-11-14T10:30:00.746Z,150324.56
2022-11-14T10:33:01.348Z,150367.50
2022-11-14T10:35:42.035Z,150335.94
2022-11-14T10:38:20.472Z,150305.63
2022-11-14T10:40:49.690Z,150333.41
2022-11-14T10:43:27.693Z,150361.16
2022-11-14T10:46:02.249Z,151025.59
2022-11-14T10:48:31.236Z,152475.31
2022-11-14T10:51:18.407Z,153822.53
2022-11-14T10:53:59.768Z,154580.28
2022-11-14T10:56:25.564Z,154327.56
2022-11-14T10:58:51.375Z,154564.94
2022-11-14T11:01:55.354Z,155261.41
2022-11-14T11:04:36.217Z,155082.41
2022-11-14T11:07:07.888Z,153627.63
2022-11-14T11:09:54.307Z,153145.13
2022-11-14T11:12:36.796Z,152507.09
2022-11-14T11:15:30.788Z,152705.25
2022-11-14T11:17:58.959Z,152911.13
2022-11-14T11:20:32.011Z,152627.69
2022-11-14T11:23:05.074Z,152480.38
2022-11-14T11:25:32.598Z,151744.56
2022-11-14T11:28:19.841Z,151371.03
2022-11-14T11:30:57.101Z,151735.72
2022-11-14T11:33:25.892Z,151979.13
2022-11-14T11:35:56.880Z,152237.94
2022-11-14T11:38:28.488Z,152427.06
2022-11-14T11:41:25.917Z,152376.22
2022-11-14T11:44:13.631Z,152521.00
2022-11-14T11:46:42.205Z,152538.78
2022-11-14T11:49:17.827Z,152922.56
2022-11-14T11:51:45.691Z,152622.63
2022-11-14T11:54:26.321Z,152585.78
2022-11-14T11:56:58.662Z,152376.22
2022-11-14T12:00:01.967Z,152040.00
2022-11-14T12:02:28.081Z,151783.94
2022-11-14T12:04:56.865Z,151758.56
2022-11-14T12:07:46.180Z,151626.78
2022-11-14T12:10:19.872Z,151284.91
2022-11-14T12:13:04.473Z,151157.16
2022-11-14T12:16:03.348Z,151196.34
2022-11-14T12:18:50.590Z,151173.59
2022-11-14T12:21:40.798Z,151078.69
2022-11-14T12:24:12.577Z,151040.78
2022-11-14T12:27:04.200Z,150981.38
2022-11-14T12:30:07.466Z,150911.84
2022-11-14T12:32:40.737Z,150838.47
2022-11-14T12:35:16.140Z,150849.88
2022-11-14T12:37:51.285Z,150881.44
2022-11-14T12:40:29.353Z,150865.00
2022-11-14T12:42:57.073Z,150818.28
2022-11-14T12:45:41.010Z,150775.28
2022-11-14T12:48:24.811Z,150753.81
2022-11-14T12:50:52.323Z,150753.81
2022-11-14T12:53:36.226Z,150794.28
2022-11-14T12:56:01.962Z,150990.19
2022-11-14T12:58:36.129Z,151293.75
2022-11-14T13:01:08.413Z,151233.03
2022-11-14T13:04:00.192Z,151038.25
2022-11-14T13:07:07.398Z,150859.97
2022-11-14T13:09:40.117Z,150808.16
2022-11-14T13:12:44.212Z,150854.91
2022-11-14T13:15:49.471Z,150803.09
2022-11-14T13:18:38.904Z,150776.59
2022-11-14T13:21:34.816Z,150766.47
2022-11-14T13:24:00.885Z,150768.97
2022-11-14T13:26:26.601Z,150727.31
2022-11-14T13:28:53.050Z,150709.63
2022-11-14T13:31:21.323Z,150751.28
2022-11-14T13:33:49.887Z,150774.03
2022-11-14T13:36:30.548Z,150839.75
2022-11-14T13:39:13.086Z,150899.19
2022-11-14T13:41:57.277Z,150935.84
2022-11-14T13:44:37.997Z,150878.91
2022-11-14T13:47:20.303Z,150817.00
2022-11-14T13:50:08.028Z,150815.75
2022-11-14T13:52:41.509Z,150777.84
2022-11-14T13:55:07.806Z,150670.47
2022-11-14T13:57:47.949Z,150703.28
2022-11-14T14:00:20.749Z,150696.97
2022-11-14T14:02:57.082Z,150671.75
2022-11-14T14:05:28.941Z,150671.75
2022-11-14T14:08:18.927Z,150693.19
2022-11-14T14:11:21.907Z,150673.00
2022-11-14T14:14:14.259Z,150625.00
2022-11-14T14:17:01.420Z,150657.84
2022-11-14T14:19:39.178Z,150656.56
2022-11-14T14:22:07.813Z,150650.28
2022-11-14T14:24:59.163Z,150584.59
2022-11-14T14:27:34.245Z,150609.81
2022-11-14T14:30:13.704Z,150546.72
2022-11-14T14:32:39.670Z,150566.91
2022-11-14T14:35:29.386Z,150590.88
2022-11-14T14:37:56.492Z,150598.50
2022-11-14T14:40:28.513Z,150595.97
2022-11-14T14:42:56.707Z,150554.28
2022-11-14T14:45:25.032Z,150556.78
2022-11-14T14:48:03.452Z,150575.72
2022-11-14T14:50:53.990Z,150590.88
2022-11-14T14:53:23.187Z,150545.47
2022-11-14T14:55:57.303Z,150560.63
2022-11-14T14:58:24.025Z,150530.31
2022-11-14T15:00:53.643Z,150532.81
2022-11-14T15:03:20.668Z,150569.44
2022-11-14T15:05:46.480Z,150563.13
2022-11-14T15:08:14.829Z,150568.19
2022-11-14T15:10:41.119Z,150574.47
2022-11-14T15:13:13.597Z,150573.22
2022-11-14T15:15:39.631Z,150549.25
2022-11-14T15:18:07.748Z,150532.81
2022-11-14T15:20:33.782Z,150516.41
2022-11-14T15:23:14.774Z,150547.97
2022-11-14T15:25:41.812Z,150544.19
2022-11-14T15:28:25.823Z,150553.00
2022-11-14T15:31:00.581Z,150559.31
2022-11-14T15:33:29.665Z,150575.72
2022-11-14T15:36:18.939Z,150560.63
2022-11-14T15:39:26.935Z,150575.72
2022-11-14T15:42:23.392Z,150554.28
2022-11-14T15:44:49.911Z,150580.81
2022-11-14T15:47:26.001Z,150597.22
2022-11-14T15:49:59.266Z,150601.00
2022-11-14T15:52:33.766Z,150640.16
2022-11-14T15:55:00.138Z,150625.00
2022-11-14T15:57:25.968Z,150642.66
2022-11-14T15:59:51.888Z,150628.75
2022-11-14T16:02:21.536Z,150601.00
2022-11-14T16:04:49.358Z,150625.00
2022-11-14T16:07:16.455Z,150608.56
2022-11-14T16:09:42.511Z,150618.69
2022-11-14T16:12:08.337Z,150592.16
2022-11-14T16:14:34.261Z,150609.81
2022-11-14T16:17:00.216Z,150611.09
2022-11-14T16:19:26.039Z,150625.00
2022-11-14T16:21:51.888Z,150616.16
2022-11-14T16:24:20.502Z,150590.88
2022-11-14T16:26:47.195Z,150606.06
2022-11-14T16:29:13.415Z,150598.50
2022-11-14T16:31:39.281Z,150613.59
2022-11-14T16:34:06.077Z,150590.88
2022-11-14T16:36:31.939Z,150595.97
2022-11-14T16:39:00.482Z,150609.81
2022-11-14T16:41:26.946Z,150609.81
2022-11-14T16:43:56.683Z,150588.38
2022-11-14T16:46:23.385Z,150617.44
2022-11-14T16:48:49.385Z,150601.00
2022-11-14T16:51:45.753Z,150570.69
2022-11-14T16:54:00.975Z,150604.78
2022-11-14T16:56:26.816Z,150601.00
2022-11-14T16:58:53.948Z,150606.06
2022-11-14T17:01:21.412Z,150566.91
2022-11-14T17:03:47.590Z,150584.59
2022-11-14T17:06:13.835Z,150544.19
2022-11-14T17:08:39.625Z,150541.63
2022-11-14T17:11:09.580Z,150580.81
2022-11-14T17:13:36.500Z,150564.41
2022-11-14T17:16:03.857Z,150583.34
2022-11-14T17:18:34.080Z,150563.13
2022-11-14T17:21:08.292Z,150534.06
2022-11-14T17:23:34.501Z,150529.03
2022-11-14T17:26:05.178Z,150530.31
2022-11-14T17:28:33.058Z,150535.34
2022-11-14T17:30:59.250Z,150537.84
2022-11-14T17:33:25.042Z,150549.25
2022-11-14T17:35:50.781Z,150553.00
2022-11-14T17:38:16.616Z,150536.59
2022-11-14T17:40:42.394Z,150539.13
2022-11-14T17:43:08.565Z,150549.25
2022-11-14T17:45:37.889Z,150547.97
2022-11-14T17:48:06.383Z,150551.75
2022-11-14T17:50:37.459Z,150575.72
2022-11-14T17:53:03.660Z,150564.41
2022-11-14T17:55:29.431Z,150560.63
2022-11-14T17:57:55.267Z,150594.66
2022-11-14T18:00:21.075Z,150598.50
2022-11-14T18:02:46.883Z,150575.72
2022-11-14T18:05:12.707Z,150599.75
2022-11-14T18:07:38.546Z,150571.94
2022-11-14T18:10:04.775Z,150556.78
2022-11-14T18:12:30.544Z,150542.94
2022-11-14T18:14:56.320Z,150561.88
2022-11-14T18:17:22.191Z,150560.63
2022-11-14T18:19:47.987Z,150525.25
2022-11-14T18:22:13.879Z,150558.06
2022-11-14T18:24:42.590Z,150550.50
2022-11-14T18:27:08.344Z,150553.00
2022-11-14T18:29:34.202Z,150540.38
2022-11-14T18:32:00.046Z,150516.41
2022-11-14T18:34:25.915Z,150532.81
2022-11-14T18:36:51.718Z,150532.81
2022-11-14T18:39:17.560Z,150526.53
2022-11-14T18:41:43.382Z,150560.63
2022-11-14T18:44:09.218Z,150545.47
2022-11-14T18:46:37.590Z,150526.53
2022-11-14T18:49:03.584Z,150511.38
2022-11-14T18:51:30.200Z,150463.38
2022-11-14T18:53:58.443Z,150474.75
2022-11-14T18:56:24.780Z,150455.84
2022-11-14T18:58:56.672Z,150445.72
2022-11-14T19:01:25.570Z,150426.78
2022-11-14T19:03:54.460Z,150419.22
2022-11-14T19:06:20.340Z,150407.84
2022-11-14T19:08:46.236Z,150402.81
2022-11-14T19:11:33.734Z,150406.59
2022-11-14T19:14:05.018Z,150387.66
2022-11-14T19:16:32.081Z,150387.66
2022-11-14T19:18:58.930Z,150423.00
2022-11-14T19:21:25.292Z,150421.75
2022-11-14T19:23:52.978Z,150406.59
2022-11-14T19:26:18.704Z,150363.72
2022-11-14T19:28:44.541Z,150322.03
2022-11-14T19:31:10.645Z,150337.19
2022-11-14T19:33:40.479Z,150320.78
2022-11-14T19:36:09.993Z,150319.53
2022-11-14T19:38:35.958Z,150295.56
2022-11-14T19:41:20.039Z,150284.19
2022-11-14T19:43:46.497Z,150255.16
2022-11-14T19:46:13.369Z,150262.72
2022-11-14T19:48:39.876Z,150277.84
2022-11-14T19:51:09.396Z,150256.41
2022-11-14T19:53:37.108Z,150233.69
2022-11-14T19:56:06.117Z,150250.09
2022-11-14T19:58:34.278Z,150270.25
2022-11-14T20:01:15.263Z,150245.06
2022-11-14T20:03:41.636Z,150242.53
2022-11-14T20:06:22.698Z,150213.50
2022-11-14T20:08:56.022Z,150216.03
2022-11-14T20:11:25.411Z,150204.69
2022-11-14T20:13:51.257Z,150216.03
2022-11-14T20:16:19.247Z,150212.25
2022-11-14T20:18:55.857Z,150227.41
2022-11-14T20:21:25.886Z,150229.91
2022-11-14T20:23:52.440Z,150212.25
2022-11-14T20:26:19.230Z,150207.22
2022-11-14T20:28:47.023Z,150212.25
2022-11-14T20:31:15.828Z,150222.34
2022-11-14T20:33:44.358Z,150253.84
2022-11-14T20:36:12.942Z,150250.09
2022-11-14T20:38:38.855Z,150241.28
2022-11-14T20:41:05.840Z,150250.09
2022-11-14T20:43:32.142Z,150272.81
2022-11-14T20:46:03.884Z,150279.13
2022-11-14T20:48:32.846Z,150322.03
2022-11-14T20:51:06.028Z,150328.38
2022-11-14T20:53:33.037Z,150320.78
2022-11-14T20:55:59.710Z,150337.19
2022-11-14T20:58:26.477Z,150337.19
2022-11-14T21:00:53.237Z,150342.22
2022-11-14T21:03:19.560Z,150346.03
2022-11-14T21:05:45.427Z,150380.06
2022-11-14T21:08:12.289Z,150395.22
2022-11-14T21:10:45.344Z,150388.94
2022-11-14T21:13:31.437Z,150400.31
2022-11-14T21:15:58.573Z,150426.78
2022-11-14T21:18:24.711Z,150430.56
2022-11-14T21:21:01.429Z,150443.19
2022-11-14T21:23:27.648Z,150486.09
2022-11-14T21:26:01.011Z,150496.22
2022-11-14T21:28:29.230Z,150487.34
2022-11-14T21:30:55.214Z,150496.22
2022-11-14T21:33:21.013Z,150502.50
2022-11-14T21:35:46.748Z,150501.25
2022-11-14T21:38:12.675Z,150510.09
2022-11-14T21:40:38.988Z,150545.47
2022-11-14T21:43:04.754Z,150545.47
2022-11-14T21:45:30.554Z,150530.31
2022-11-14T21:47:56.569Z,150530.31
2022-11-14T21:50:22.493Z,150521.44
2022-11-14T21:52:48.399Z,150527.78
2022-11-14T21:55:14.252Z,150515.16
2022-11-14T21:57:40.035Z,150522.69
2022-11-14T22:00:06.566Z,150518.91
2022-11-14T22:02:51.161Z,150539.13
2022-11-14T22:05:16.915Z,150536.59
2022-11-14T22:07:42.782Z,150573.22
2022-11-14T22:10:08.755Z,150571.94
2022-11-14T22:12:34.625Z,150585.84
2022-11-14T22:15:00.687Z,150623.72
2022-11-14T22:17:30.677Z,150609.81
2022-11-14T22:19:56.424Z,150640.16
2022-11-14T22:22:22.183Z,150664.13
2022-11-14T22:24:47.919Z,150673.00
2022-11-14T22:27:13.671Z,150699.50
2022-11-14T22:29:39.433Z,150702.03
2022-11-14T22:32:05.211Z,150714.66
2022-11-14T22:34:30.954Z,150722.28
2022-11-14T22:36:56.744Z,150719.69
2022-11-14T22:39:22.541Z,150747.50
2022-11-14T22:41:48.393Z,150742.47
2022-11-14T22:44:14.128Z,150755.06
2022-11-14T22:46:39.875Z,150752.56
2022-11-14T22:49:05.715Z,150761.44
2022-11-14T22:51:31.578Z,150766.47
2022-11-14T22:53:58.368Z,150757.66
2022-11-14T22:56:26.955Z,150772.75
2022-11-14T22:58:52.806Z,150771.50
2022-11-14T23:01:26.144Z,150776.59
2022-11-14T23:03:54.513Z,150785.41
2022-11-14T23:06:21.081Z,150801.84
2022-11-14T23:08:46.869Z,150810.66
2022-11-14T23:11:16.113Z,150834.72
2022-11-14T23:13:50.602Z,150822.06
2022-11-14T23:16:22.074Z,150828.34
2022-11-14T23:18:49.259Z,150866.31
2022-11-14T23:21:18.455Z,150882.69
2022-11-14T23:23:44.337Z,150890.34
2022-11-14T23:26:15.343Z,150901.75
2022-11-14T23:28:41.486Z,150892.88
2022-11-14T23:31:08.731Z,150911.84
2022-11-14T23:33:35.082Z,150905.53
2022-11-14T23:36:01.498Z,150916.88
2022-11-14T23:38:29.928Z,150933.31
2022-11-14T23:41:00.164Z,150932.06
2022-11-14T23:43:26.702Z,150938.41
2022-11-14T23:45:53.047Z,150938.41
2022-11-14T23:48:20.226Z,150943.44
2022-11-14T23:50:53.276Z,150944.72
2022-11-14T23:53:19.595Z,150957.38
2022-11-14T23:55:53.153Z,150957.38
2022-11-14T23:58:20.614Z,150966.19
